Time;durP1;ratioP1;P1;durP2;ratioP2;P2;SDS_P1;SDS_P2;PMS_P1;PMS_P2;Temp;Humidity;BMP_temperature;BMP_pressure;BME280_temperature;BME280_humidity;BME280_pressure;Samples;Min_cycle;Max_cycle;Signal;HPM_P1;HPM_P2
2022/04/21 00:00:00;;;;;;;6.18;5.57;;;;;;;;;;6219907;23;20039;-79
2022/04/21 00:02:26;;;;;;;7.20;5.97;;;;;;;;;;6246901;23;20000;-79
2022/04/21 00:04:52;;;;;;;6.03;5.40;;;;;;;;;;6219598;23;20012;-80
2022/04/21 00:07:18;;;;;;;5.38;4.45;;;;;;;;;;6246595;23;20030;-79
2022/04/21 00:09:45;;;;;;;6.50;4.97;;;;;;;;;;6246803;23;20000;-79
2022/04/21 00:12:11;;;;;;;5.53;5.00;;;;;;;;;;6246647;23;20000;-79
2022/04/21 00:14:37;;;;;;;5.95;5.35;;;;;;;;;;6246684;23;20031;-79
2022/04/21 00:17:03;;;;;;;12.00;9.20;;;;;;;;;;6246604;23;20004;-79
2022/04/21 00:19:29;;;;;;;8.98;7.72;;;;;;;;;;6246864;23;20016;-79
2022/04/21 00:24:40;;;;;;;10.80;8.00;;;;;;;;;;6246523;23;20041;-79
2022/04/21 00:27:06;;;;;;;7.85;6.95;;;;;;;;;;6246506;23;20078;-80
2022/04/21 00:29:32;;;;;;;7.25;6.32;;;;;;;;;;6246542;23;20001;-79
2022/04/21 00:31:58;;;;;;;6.10;5.53;;;;;;;;;;6246532;23;20019;-79
2022/04/21 00:34:24;;;;;;;6.60;6.00;;;;;;;;;;6246564;23;20305;-79
2022/04/21 00:36:50;;;;;;;6.47;5.88;;;;;;;;;;6246473;23;20034;-79
2022/04/21 00:39:16;;;;;;;6.38;5.68;;;;;;;;;;6246402;23;20057;-79
2022/04/21 00:41:43;;;;;;;5.65;5.15;;;;;;;;;;6246385;23;20083;-79
2022/04/21 00:44:09;;;;;;;6.57;5.88;;;;;;;;;;6246326;23;20074;-79
2022/04/21 00:46:37;;;;;;;6.45;5.30;;;;;;;;;;6246398;23;20071;-79
2022/04/21 00:49:04;;;;;;;7.32;5.90;;;;;;;;;;6246314;23;19996;-79
2022/04/21 00:51:31;;;;;;;6.70;6.10;;;;;;;;;;6246418;23;20001;-79
2022/04/21 00:53:58;;;;;;;7.07;6.13;;;;;;;;;;6246144;23;20019;-79
2022/04/21 00:56:25;;;;;;;9.05;7.22;;;;;;;;;;6246292;23;20070;-79
2022/04/21 00:58:51;;;;;;;7.13;6.40;;;;;;;;;;6246245;23;20000;-79
2022/04/21 01:04:03;;;;;;;11.95;9.88;;;;;;;;;;6246215;23;20391;-79
2022/04/21 01:06:29;;;;;;;13.10;10.32;;;;;;;;;;6246155;23;20066;-79
2022/04/21 01:08:57;;;;;;;7.90;6.78;;;;;;;;;;6246255;23;20051;-79
2022/04/21 01:11:23;;;;;;;7.97;7.18;;;;;;;;;;6246195;23;19996;-79
2022/04/21 01:13:50;;;;;;;9.55;7.40;;;;;;;;;;6246144;23;20000;-79
2022/04/21 01:16:16;;;;;;;14.10;8.38;;;;;;;;;;6246277;23;20007;-79
2022/04/21 01:18:42;;;;;;;6.78;5.80;;;;;;;;;;6245990;23;20439;-79
2022/04/21 01:21:08;;;;;;;5.68;4.93;;;;;;;;;;6246734;23;20012;-80
2022/04/21 01:23:34;;;;;;;7.82;5.97;;;;;;;;;;6246247;23;20448;-79
2022/04/21 01:26:01;;;;;;;8.70;7.28;;;;;;;;;;6245974;23;20000;-79
2022/04/21 01:28:29;;;;;;;10.55;9.27;;;;;;;;;;6246223;23;20000;-79
2022/04/21 01:30:56;;;;;;;10.45;9.00;;;;;;;;;;6219185;23;20000;-79
2022/04/21 01:33:22;;;;;;;9.50;7.72;;;;;;;;;;6246102;23;19997;-79
2022/04/21 01:35:48;;;;;;;9.35;7.82;;;;;;;;;;6246113;23;20000;-79
2022/04/21 01:41:11;;;;;;;8.35;6.85;;;;;;;;;;6246098;23;20458;-79
2022/04/21 01:43:38;;;;;;;9.13;8.23;;;;;;;;;;6246029;23;20503;-79
2022/04/21 01:46:05;;;;;;;8.80;7.55;;;;;;;;;;6247180;23;20083;-79
2022/04/21 01:48:31;;;;;;;9.18;8.18;;;;;;;;;;6248146;23;20023;-79
2022/04/21 01:50:57;;;;;;;9.80;8.80;;;;;;;;;;6248019;23;20077;-79
2022/04/21 01:53:23;;;;;;;7.38;6.68;;;;;;;;;;6248126;23;20042;-79
2022/04/21 01:55:49;;;;;;;7.53;6.82;;;;;;;;;;6247805;23;20012;-79
2022/04/21 01:58:15;;;;;;;9.68;7.10;;;;;;;;;;6248046;23;20004;-79
2022/04/21 02:00:41;;;;;;;12.80;9.70;;;;;;;;;;6247966;23;20004;-79
2022/04/21 02:03:07;;;;;;;10.38;8.80;;;;;;;;;;6248170;23;20328;-79
2022/04/21 02:05:34;;;;;;;8.93;7.20;;;;;;;;;;6247833;23;20006;-79
2022/04/21 02:08:03;;;;;;;11.32;8.50;;;;;;;;;;6247829;23;20031;-79
2022/04/21 02:10:30;;;;;;;10.65;8.98;;;;;;;;;;6247917;23;20039;-79
2022/04/21 02:12:57;;;;;;;9.43;7.75;;;;;;;;;;6247850;23;20004;-79
2022/04/21 02:15:23;;;;;;;10.68;8.05;;;;;;;;;;6220997;23;20046;-79
2022/04/21 02:17:50;;;;;;;9.70;8.70;;;;;;;;;;6247803;23;20004;-79
2022/04/21 02:20:16;;;;;;;9.73;7.63;;;;;;;;;;6248170;23;20032;-79
2022/04/21 02:22:43;;;;;;;7.40;6.70;;;;;;;;;;6247777;23;20008;-79
2022/04/21 02:25:10;;;;;;;7.97;7.18;;;;;;;;;;6247730;23;20419;-79
2022/04/21 02:27:37;;;;;;;8.40;7.25;;;;;;;;;;6247698;23;19996;-79
2022/04/21 02:30:06;;;;;;;8.95;7.10;;;;;;;;;;6247729;23;20001;-79
2022/04/21 02:32:32;;;;;;;7.80;6.95;;;;;;;;;;6247728;23;19993;-79
2022/04/21 02:34:58;;;;;;;7.97;7.15;;;;;;;;;;6247639;23;20024;-79
2022/04/21 02:37:25;;;;;;;7.93;6.75;;;;;;;;;;6247688;23;20030;-79
2022/04/21 02:39:51;;;;;;;8.02;7.20;;;;;;;;;;6247555;23;20332;-79
2022/04/21 02:42:19;;;;;;;9.20;8.02;;;;;;;;;;6247696;23;20008;-79
2022/04/21 02:44:46;;;;;;;11.32;9.20;;;;;;;;;;6247494;23;20004;-79
2022/04/21 02:47:12;;;;;;;22.35;12.80;;;;;;;;;;6247690;23;20024;-79
2022/04/21 02:49:38;;;;;;;13.82;10.63;;;;;;;;;;6247488;23;19996;-78
2022/04/21 02:52:11;;;;;;;12.25;9.50;;;;;;;;;;6247485;23;19993;-79
2022/04/21 02:57:22;;;;;;;11.77;9.52;;;;;;;;;;6246795;23;20141;-79
2022/04/21 02:59:52;;;;;;;11.18;9.25;;;;;;;;;;6247416;23;20001;-79
2022/04/21 03:02:19;;;;;;;13.88;12.02;;;;;;;;;;6247373;23;20040;-79
2022/04/21 03:04:45;;;;;;;11.85;9.68;;;;;;;;;;6247266;23;20000;-79
2022/04/21 03:07:13;;;;;;;7.78;6.97;;;;;;;;;;6247243;23;20468;-79
2022/04/21 03:09:39;;;;;;;8.63;7.15;;;;;;;;;;6247315;23;19996;-79
2022/04/21 03:12:06;;;;;;;7.75;7.00;;;;;;;;;;6220439;23;19996;-79
2022/04/21 03:14:34;;;;;;;8.02;7.22;;;;;;;;;;6220394;23;20004;-79
2022/04/21 03:17:00;;;;;;;8.25;7.13;;;;;;;;;;6247316;23;20000;-79
2022/04/21 03:19:26;;;;;;;10.90;8.23;;;;;;;;;;6247301;23;20507;-79
2022/04/21 03:24:37;;;;;;;9.85;8.60;;;;;;;;;;6247141;23;20014;-79
2022/04/21 03:27:04;;;;;;;14.32;11.75;;;;;;;;;;6247337;23;20052;-79
2022/04/21 03:29:30;;;;;;;22.33;15.57;;;;;;;;;;6247028;23;20042;-79
2022/04/21 03:31:56;;;;;;;10.40;8.02;;;;;;;;;;6246933;23;20067;-79
2022/04/21 03:34:22;;;;;;;8.02;6.88;;;;;;;;;;6247119;23;20007;-79
2022/04/21 03:36:49;;;;;;;6.68;5.70;;;;;;;;;;6247043;23;20377;-78
2022/04/21 03:39:16;;;;;;;7.10;6.40;;;;;;;;;;6247186;23;19996;-79
2022/04/21 03:41:43;;;;;;;6.60;5.90;;;;;;;;;;6246853;23;20028;-79
2022/04/21 03:44:11;;;;;;;7.80;6.05;;;;;;;;;;6246986;23;20030;-79
2022/04/21 03:46:40;;;;;;;7.93;6.55;;;;;;;;;;6247028;23;20370;-79
2022/04/21 03:49:07;;;;;;;12.43;6.95;;;;;;;;;;6246961;23;20023;-79
2022/04/21 03:51:33;;;;;;;8.25;5.97;;;;;;;;;;6246942;23;20327;-79
2022/04/21 03:54:00;;;;;;;7.30;6.60;;;;;;;;;;6246683;23;20039;-79
2022/04/21 03:56:29;;;;;;;9.30;8.00;;;;;;;;;;6246870;23;20064;-79
2022/04/21 03:58:57;;;;;;;12.20;9.43;;;;;;;;;;6246866;23;20003;-78
2022/04/21 04:01:23;;;;;;;16.77;10.38;;;;;;;;;;6246787;23;20000;-79
2022/04/21 04:03:49;;;;;;;21.77;14.95;;;;;;;;;;6246418;23;19996;-79
2022/04/21 04:11:45;;;;;;;14.13;10.98;;;;;;;;;;6246240;23;20015;-79
2022/04/21 04:14:11;;;;;;;15.25;9.60;;;;;;;;;;6246537;23;20067;-79
2022/04/21 04:16:37;;;;;;;11.77;8.25;;;;;;;;;;6246634;23;20004;-79
2022/04/21 04:19:05;;;;;;;12.93;8.90;;;;;;;;;;6246698;23;20011;-79
2022/04/21 04:21:34;;;;;;;9.68;8.10;;;;;;;;;;6246544;23;20428;-78
2022/04/21 04:24:01;;;;;;;11.63;9.63;;;;;;;;;;6246505;23;20495;-79
2022/04/21 04:26:27;;;;;;;13.52;11.07;;;;;;;;;;6246454;23;20011;-79
2022/04/21 04:28:54;;;;;;;14.00;11.20;;;;;;;;;;6246444;23;19996;-79
2022/04/21 04:31:20;;;;;;;15.82;9.98;;;;;;;;;;6246440;23;20011;-79
2022/04/21 04:33:46;;;;;;;11.95;8.98;;;;;;;;;;6246524;23;20003;-79
2022/04/21 04:36:15;;;;;;;10.20;8.52;;;;;;;;;;6219685;23;20094;-79
2022/04/21 04:38:42;;;;;;;9.80;7.10;;;;;;;;;;6246331;23;20027;-79
2022/04/21 04:44:00;;;;;;;7.40;6.70;;;;;;;;;;6222887;23;20443;-78
2022/04/21 04:46:35;;;;;;;7.18;6.07;;;;;;;;;;6246262;23;20031;-78
2022/04/21 04:49:05;;;;;;;7.03;6.10;;;;;;;;;;6246342;23;20000;-78
2022/04/21 04:51:32;;;;;;;8.40;7.60;;;;;;;;;;6219221;23;20079;-78
2022/04/21 04:53:58;;;;;;;7.10;6.32;;;;;;;;;;6246130;23;20012;-77
2022/04/21 04:56:24;;;;;;;5.85;5.32;;;;;;;;;;6246364;23;19996;-77
2022/04/21 04:58:55;;;;;;;6.78;6.07;;;;;;;;;;6219621;23;20070;-78
2022/04/21 05:01:26;;;;;;;7.07;6.28;;;;;;;;;;6246284;23;20079;-78
2022/04/21 05:04:11;;;;;;;7.57;6.18;;;;;;;;;;6246120;23;20000;-78
2022/04/21 05:06:37;;;;;;;6.57;5.53;;;;;;;;;;6246113;23;20035;-78
2022/04/21 05:09:04;;;;;;;7.15;5.93;;;;;;;;;;6246284;23;20415;-77
2022/04/21 05:11:31;;;;;;;9.45;6.78;;;;;;;;;;6246096;23;20004;-78
2022/04/21 05:13:57;;;;;;;10.65;7.78;;;;;;;;;;6246080;23;20023;-78
2022/04/21 05:16:23;;;;;;;19.77;16.05;;;;;;;;;;6245702;23;20081;-78
2022/04/21 05:18:50;;;;;;;54.97;39.10;;;;;;;;;;6245823;23;20008;-78
2022/04/21 05:21:17;;;;;;;48.67;37.58;;;;;;;;;;6245511;23;20023;-78
2022/04/21 05:23:45;;;;;;;48.28;36.35;;;;;;;;;;6218790;23;20428;-79
2022/04/21 05:26:11;;;;;;;39.22;29.63;;;;;;;;;;6243858;23;20000;-79
2022/04/21 05:28:41;;;;;;;54.35;40.17;;;;;;;;;;6217808;23;20049;-77
2022/04/21 05:31:07;;;;;;;43.28;34.88;;;;;;;;;;6245016;23;20071;-77
2022/04/21 05:33:35;;;;;;;33.13;27.25;;;;;;;;;;6244751;23;20066;-81
2022/04/21 05:36:01;;;;;;;25.98;20.25;;;;;;;;;;6241764;23;20002;-78
2022/04/21 05:38:28;;;;;;;26.25;19.30;;;;;;;;;;6240482;23;20106;-80
2022/04/21 05:40:54;;;;;;;21.27;16.98;;;;;;;;;;6243611;23;20398;-80
2022/04/21 05:43:21;;;;;;;14.73;13.10;;;;;;;;;;6243496;23;20008;-79
2022/04/21 05:45:48;;;;;;;14.82;13.32;;;;;;;;;;6243269;23;20008;-79
2022/04/21 05:48:15;;;;;;;15.07;12.65;;;;;;;;;;6215788;23;20000;-79
2022/04/21 05:50:47;;;;;;;15.60;13.90;;;;;;;;;;6243397;23;20004;-80
2022/04/21 05:53:20;;;;;;;17.77;15.68;;;;;;;;;;6242980;23;20501;-78
2022/04/21 05:55:46;;;;;;;30.15;21.02;;;;;;;;;;6243199;23;20018;-79
2022/04/21 05:58:12;;;;;;;29.70;20.02;;;;;;;;;;6242771;23;20004;-79
2022/04/21 06:00:38;;;;;;;167.30;54.95;;;;;;;;;;6243323;23;20480;-79
2022/04/21 06:03:04;;;;;;;228.68;65.80;;;;;;;;;;6243122;23;20340;-72
2022/04/21 06:05:31;;;;;;;257.73;72.47;;;;;;;;;;6242821;23;20030;-77
2022/04/21 06:07:57;;;;;;;58.75;31.42;;;;;;;;;;6242446;23;20024;-80
2022/04/21 06:10:23;;;;;;;45.17;28.35;;;;;;;;;;6242748;23;20000;-79
2022/04/21 06:12:49;;;;;;;30.20;24.77;;;;;;;;;;6243215;23;20203;-79
2022/04/21 06:15:17;;;;;;;30.63;24.65;;;;;;;;;;6215832;23;20023;-78
2022/04/21 06:17:43;;;;;;;27.15;19.80;;;;;;;;;;6242856;23;20515;-79
2022/04/21 06:20:10;;;;;;;26.17;20.95;;;;;;;;;;6243256;23;20019;-80
2022/04/21 06:22:36;;;;;;;31.85;23.77;;;;;;;;;;6215684;23;20408;-79
2022/04/21 06:25:02;;;;;;;29.67;22.55;;;;;;;;;;6243158;23;20054;-79
2022/04/21 06:27:28;;;;;;;31.00;23.27;;;;;;;;;;6243013;23;20101;-79
2022/04/21 06:29:54;;;;;;;30.20;22.17;;;;;;;;;;6215414;23;20086;-79
2022/04/21 06:32:20;;;;;;;37.83;26.08;;;;;;;;;;6244217;23;20000;-79
2022/04/21 06:34:47;;;;;;;34.80;24.02;;;;;;;;;;6244920;23;20008;-79
2022/04/21 06:37:13;;;;;;;34.75;26.63;;;;;;;;;;6244584;23;20510;-79
2022/04/21 06:39:41;;;;;;;34.60;22.92;;;;;;;;;;6244914;23;20015;-78
2022/04/21 06:42:07;;;;;;;42.13;29.95;;;;;;;;;;6217887;23;20035;-79
2022/04/21 06:50:02;;;;;;;35.15;23.95;;;;;;;;;;6244981;23;20015;-80
2022/04/21 06:52:29;;;;;;;29.42;22.42;;;;;;;;;;6217359;23;20034;-79
2022/04/21 06:54:56;;;;;;;40.10;27.35;;;;;;;;;;6217866;23;20051;-81
2022/04/21 06:57:23;;;;;;;25.48;18.30;;;;;;;;;;6244755;23;20370;-79
2022/04/21 06:59:49;;;;;;;29.88;22.33;;;;;;;;;;6244681;23;20004;-81
2022/04/21 07:02:16;;;;;;;20.00;14.80;;;;;;;;;;6244786;23;20000;-79
2022/04/21 07:04:42;;;;;;;14.20;8.90;;;;;;;;;;6244128;23;20000;-80
2022/04/21 07:07:08;;;;;;;14.15;9.80;;;;;;;;;;6244509;23;20004;-79
2022/04/21 07:09:37;;;;;;;12.63;8.40;;;;;;;;;;6243962;23;20374;-82
2022/04/21 07:12:04;;;;;;;11.85;9.13;;;;;;;;;;6244130;23;20000;-81
2022/04/21 07:14:30;;;;;;;33.92;12.60;;;;;;;;;;6217508;23;20004;-80
2022/04/21 07:16:58;;;;;;;18.17;10.02;;;;;;;;;;6217600;23;20420;-81
2022/04/21 07:19:25;;;;;;;30.05;11.75;;;;;;;;;;6244575;23;20024;-81
2022/04/21 07:21:51;;;;;;;31.55;12.60;;;;;;;;;;6217235;23;20331;-81
2022/04/21 07:24:17;;;;;;;52.53;17.83;;;;;;;;;;6243479;23;20010;-80
2022/04/21 07:26:43;;;;;;;23.38;10.27;;;;;;;;;;6244466;23;20004;-79
2022/04/21 07:29:12;;;;;;;57.80;18.20;;;;;;;;;;6244267;23;20004;-80
2022/04/21 07:31:41;;;;;;;76.68;23.67;;;;;;;;;;6215947;23;20007;-80
2022/04/21 07:34:10;;;;;;;67.85;22.45;;;;;;;;;;6244706;23;19997;-81
2022/04/21 07:36:36;;;;;;;49.63;16.38;;;;;;;;;;6217523;23;20507;-80
2022/04/21 07:39:02;;;;;;;42.92;14.85;;;;;;;;;;6242822;23;20031;-80
2022/04/21 07:41:28;;;;;;;81.15;22.88;;;;;;;;;;6216338;23;20083;-80
2022/04/21 07:43:54;;;;;;;76.95;27.17;;;;;;;;;;6243151;23;20083;-80
2022/04/21 07:46:20;;;;;;;111.60;34.22;;;;;;;;;;6244042;23;20008;-82
2022/04/21 07:51:31;;;;;;;33.78;13.57;;;;;;;;;;6243865;23;20153;-81
2022/04/21 07:54:15;;;;;;;52.92;17.50;;;;;;;;;;6243768;23;20016;-82
2022/04/21 07:56:44;;;;;;;35.63;14.02;;;;;;;;;;6217114;23;20004;-80
2022/04/21 07:59:10;;;;;;;40.75;16.42;;;;;;;;;;6243963;23;20015;-81
2022/04/21 08:01:55;;;;;;;;;;;;;;;;;;;;;
2022/04/21 08:04:21;;;;;;;14.07;7.18;;;;;;;;;;6244256;23;20007;-81
2022/04/21 08:06:47;;;;;;;59.05;19.52;;;;;;;;;;6243986;23;20305;-80
2022/04/21 08:09:13;;;;;;;35.70;14.23;;;;;;;;;;6216824;23;20095;-82
2022/04/21 08:11:39;;;;;;;36.53;13.20;;;;;;;;;;6243785;23;20073;-81
2022/04/21 08:14:08;;;;;;;65.80;22.10;;;;;;;;;;6243619;23;20000;-81
2022/04/21 08:16:34;;;;;;;21.58;9.23;;;;;;;;;;6217168;23;20497;-78
2022/04/21 08:19:00;;;;;;;9.55;7.10;;;;;;;;;;6243099;23;20008;-81
2022/04/21 08:21:26;;;;;;;54.33;18.38;;;;;;;;;;6243670;23;20426;-81
2022/04/21 08:32:33;;;;;;;66.65;23.35;;;;;;;;;;6215806;23;20015;-80
2022/04/21 08:32:51;;;;;;;26.05;10.55;;;;;;;;;;6244776;23;20015;-82
2022/04/21 08:35:17;;;;;;;619.55;189.65;;;;;;;;;;6244814;23;20031;-82
2022/04/21 08:37:51;;;;;;;444.20;134.27;;;;;;;;;;6217914;23;20015;-82
2022/04/21 08:40:18;;;;;;;542.28;165.77;;;;;;;;;;6217122;23;20004;-78
2022/04/21 08:42:44;;;;;;;477.27;148.77;;;;;;;;;;6244485;23;20008;-81
2022/04/21 08:45:12;;;;;;;42.10;16.67;;;;;;;;;;6217388;23;20016;-80
2022/04/21 08:47:43;;;;;;;25.70;10.35;;;;;;;;;;6244157;23;20752;-80
2022/04/21 08:50:12;;;;;;;20.48;9.55;;;;;;;;;;6217665;23;20480;-80
2022/04/21 08:52:38;;;;;;;31.85;13.13;;;;;;;;;;6244070;23;19996;-80
2022/04/21 08:55:10;;;;;;;27.85;11.05;;;;;;;;;;6244234;23;20062;-80
2022/04/21 08:57:37;;;;;;;7.80;6.15;;;;;;;;;;6242223;23;20031;-82
2022/04/21 09:00:07;;;;;;;27.98;14.07;;;;;;;;;;6243108;23;20000;-80
2022/04/21 09:02:51;;;;;;;24.88;11.88;;;;;;;;;;6242795;23;20023;-80
2022/04/21 09:05:20;;;;;;;44.03;16.70;;;;;;;;;;6243970;23;20420;-81
2022/04/21 09:07:50;;;;;;;57.28;20.52;;;;;;;;;;6243581;23;20000;-80
2022/04/21 09:10:17;;;;;;;17.67;10.15;;;;;;;;;;6216480;23;20435;-79
2022/04/21 09:12:47;;;;;;;93.95;32.97;;;;;;;;;;6243249;23;20086;-79
2022/04/21 09:15:17;;;;;;;25.00;10.77;;;;;;;;;;6243632;23;20000;-80
2022/04/21 09:17:53;;;;;;;31.15;12.70;;;;;;;;;;6243051;23;20402;-81
2022/04/21 09:20:39;;;;;;;293.20;87.32;;;;;;;;;;6242953;23;20107;-79
2022/04/21 09:23:14;;;;;;;17.15;9.82;;;;;;;;;;6243048;23;20080;-80
2022/04/21 09:25:47;;;;;;;18.40;9.43;;;;;;;;;;6241960;23;20054;-80
2022/04/21 09:28:23;;;;;;;10.90;6.25;;;;;;;;;;6242432;23;20003;-82
2022/04/21 09:30:53;;;;;;;6.30;5.15;;;;;;;;;;6242951;23;20008;-80
2022/04/21 09:33:36;;;;;;;6.32;5.47;;;;;;;;;;6242743;23;20004;-81
2022/04/21 09:36:03;;;;;;;17.30;8.38;;;;;;;;;;6243137;23;20000;-81
2022/04/21 09:38:29;;;;;;;7.22;5.85;;;;;;;;;;6243490;23;20015;-81
2022/04/21 09:40:56;;;;;;;5.30;4.80;;;;;;;;;;6243206;23;20016;-80
2022/04/21 09:43:29;;;;;;;8.07;5.18;;;;;;;;;;6243240;23;20007;-81
2022/04/21 09:46:10;;;;;;;8.35;5.05;;;;;;;;;;6242801;23;20004;-82
2022/04/21 09:48:37;;;;;;;5.30;4.80;;;;;;;;;;6243321;23;19996;-81
2022/04/21 09:51:11;;;;;;;6.95;4.65;;;;;;;;;;6216491;23;20309;-80
2022/04/21 09:53:49;;;;;;;6.40;4.00;;;;;;;;;;6243406;23;20454;-80
2022/04/21 09:56:31;;;;;;;7.97;6.03;;;;;;;;;;6243355;23;20446;-81
2022/04/21 09:59:00;;;;;;;5.63;4.85;;;;;;;;;;6243315;23;19992;-81
2022/04/21 10:01:26;;;;;;;7.55;5.43;;;;;;;;;;6243885;23;20075;-79
2022/04/21 10:03:52;;;;;;;6.53;5.93;;;;;;;;;;6243519;23;20423;-81
2022/04/21 10:06:21;;;;;;;16.55;7.65;;;;;;;;;;6244299;23;20031;-80
2022/04/21 10:08:48;;;;;;;8.73;6.82;;;;;;;;;;6245742;23;20067;-79
2022/04/21 10:11:18;;;;;;;4.97;4.47;;;;;;;;;;6245683;23;20004;-80
2022/04/21 10:13:45;;;;;;;5.07;4.35;;;;;;;;;;6246172;23;20022;-79
2022/04/21 10:16:12;;;;;;;5.28;4.78;;;;;;;;;;6215562;23;20012;-80
2022/04/21 10:18:38;;;;;;;5.85;5.20;;;;;;;;;;6245555;23;20075;-80
2022/04/21 10:21:05;;;;;;;6.15;4.80;;;;;;;;;;6245773;23;20015;-81
2022/04/21 10:23:35;;;;;;;5.22;4.53;;;;;;;;;;6246543;23;20004;-80
2022/04/21 10:26:02;;;;;;;6.72;4.95;;;;;;;;;;6218248;23;20031;-81
2022/04/21 10:28:36;;;;;;;5.97;4.93;;;;;;;;;;6245714;23;20000;-81
2022/04/21 10:31:21;;;;;;;7.80;5.47;;;;;;;;;;6245959;23;20012;-80
2022/04/21 10:33:47;;;;;;;;;;;;;;;;;;6246122;23;19996;-81
2022/04/21 10:36:32;;;;;;;8.48;7.68;;;;;;;;;;6246120;23;19900;-82
2022/04/21 10:39:17;;;;;;;7.78;6.70;;;;;;;;;;6246102;23;20004;-80
2022/04/21 10:41:43;;;;;;;11.15;8.82;;;;;;;;;;6219843;23;20015;-80
2022/04/21 10:44:35;;;;;;;12.82;9.05;;;;;;;;;;6246139;23;20391;-80
2022/04/21 10:47:20;;;;;;;8.15;7.35;;;;;;;;;;6240358;23;20012;-79
2022/04/21 10:50:15;;;;;;;10.75;8.98;;;;;;;;;;6246803;23;20501;-81
2022/04/21 10:57:55;;;;;;;;;;;;;;;;;;6246509;23;20015;-80
2022/04/21 11:00:40;;;;;;;9.48;8.48;;;;;;;;;;6219257;23;19906;-81
2022/04/21 11:03:06;;;;;;;;;;;;;;;;;;6219054;23;20004;-80
2022/04/21 11:05:36;;;;;;;14.13;10.68;;;;;;;;;;6245828;23;19954;-81
2022/04/21 11:08:06;;;;;;;9.85;8.25;;;;;;;;;;6245465;23;20000;-82
2022/04/21 11:10:45;;;;;;;14.98;10.20;;;;;;;;;;6245946;23;20023;-80
2022/04/21 11:13:16;;;;;;;7.45;6.78;;;;;;;;;;6220367;23;20435;-81
2022/04/21 11:15:46;;;;;;;11.73;8.73;;;;;;;;;;6246369;23;20350;-79
2022/04/21 11:18:31;;;;;;;29.42;16.00;;;;;;;;;;6246176;23;20114;-80
2022/04/21 11:20:57;;;;;;;;;;;;;;;;;;6251762;23;20420;-82
2022/04/21 11:23:29;;;;;;;33.22;15.65;;;;;;;;;;6244856;23;19907;-83
2022/04/21 11:26:03;;;;;;;13.32;11.93;;;;;;;;;;6218627;23;20014;-82
2022/04/21 11:28:29;;;;;;;15.18;12.40;;;;;;;;;;6245595;23;20050;-81
2022/04/21 11:30:58;;;;;;;22.38;12.70;;;;;;;;;;6245540;23;20059;-82
2022/04/21 11:33:24;;;;;;;21.95;12.82;;;;;;;;;;6246335;23;20008;-81
2022/04/21 11:35:50;;;;;;;20.58;11.65;;;;;;;;;;6247398;23;20005;-80
2022/04/21 11:38:17;;;;;;;48.03;17.75;;;;;;;;;;6247057;23;20028;-82
2022/04/21 11:40:44;;;;;;;47.53;17.30;;;;;;;;;;6247287;23;20001;-81
2022/04/21 11:43:17;;;;;;;45.35;17.17;;;;;;;;;;6247010;23;20015;-78
2022/04/21 11:45:54;;;;;;;36.58;17.92;;;;;;;;;;6246482;23;20011;-81
2022/04/21 11:48:21;;;;;;;29.80;14.18;;;;;;;;;;6246551;23;20000;-78
2022/04/21 11:50:49;;;;;;;25.80;12.70;;;;;;;;;;6246095;23;19996;-81
2022/04/21 11:53:18;;;;;;;52.60;23.63;;;;;;;;;;6246710;23;20071;-85
2022/04/21 11:55:45;;;;;;;29.83;14.52;;;;;;;;;;6218319;23;20016;-81
2022/04/21 11:58:25;;;;;;;39.95;16.50;;;;;;;;;;6246030;23;20007;-82
2022/04/21 12:06:32;;;;;;;54.38;22.48;;;;;;;;;;6246126;23;20019;-80
2022/04/21 12:09:02;;;;;;;54.65;19.88;;;;;;;;;;6246329;23;20442;-81
2022/04/21 12:11:31;;;;;;;44.33;18.33;;;;;;;;;;6246644;23;19996;-82
2022/04/21 12:13:57;;;;;;;20.17;11.77;;;;;;;;;;6246219;23;20008;-81
2022/04/21 12:16:38;;;;;;;20.23;11.18;;;;;;;;;;6246467;23;20050;-82
2022/04/21 12:19:23;;;;;;;17.38;9.85;;;;;;;;;;6246146;23;20023;-83
2022/04/21 12:21:52;;;;;;;;;;;;;;;;;;6219728;23;20479;-83
2022/04/21 12:24:18;;;;;;;20.95;13.10;;;;;;;;;;6218768;23;19899;-83
2022/04/21 12:26:51;;;;;;;19.40;11.43;;;;;;;;;;6246029;23;20007;-81
2022/04/21 12:29:19;;;;;;;13.77;9.50;;;;;;;;;;6219617;23;20090;-83
2022/04/21 12:31:50;;;;;;;17.48;10.77;;;;;;;;;;6246026;23;19996;-80
2022/04/21 12:34:49;;;;;;;23.17;11.32;;;;;;;;;;6246189;23;20023;-81
2022/04/21 12:37:18;;;;;;;19.13;11.02;;;;;;;;;;6124091;23;20288;-81
2022/04/21 12:39:48;;;;;;;23.30;12.30;;;;;;;;;;6124107;23;20002;-82
2022/04/21 12:46:09;;;;;;;;;;;;;;;;;;;;;
2022/04/21 12:52:01;;;;;;;19.83;12.10;;;;;;;;;;6034648;23;20002;-84
2022/04/21 12:54:48;;;;;;;23.20;11.48;;;;;;;;;;6105548;23;20022;-83
2022/04/21 12:57:37;;;;;;;16.73;10.77;;;;;;;;;;6094605;23;20016;-85
2022/04/21 13:03:14;;;;;;;15.23;10.02;;;;;;;;;;6124729;23;20464;-82
2022/04/21 13:06:00;;;;;;;15.60;9.82;;;;;;;;;;6188745;23;20016;-82
2022/04/21 13:08:27;;;;;;;23.65;12.70;;;;;;;;;;6215715;23;20003;-83
2022/04/21 13:10:55;;;;;;;70.30;51.15;;;;;;;;;;6215763;23;20003;-64
2022/04/21 13:13:21;;;;;;;69.35;53.53;;;;;;;;;;6215693;23;20312;-64
2022/04/21 13:15:48;;;;;;;31.52;20.63;;;;;;;;;;6215839;23;20440;-64
2022/04/21 13:18:15;;;;;;;23.45;12.73;;;;;;;;;;6216031;23;20305;-65
2022/04/21 13:23:26;;;;;;;;;;;;;;;;;;6216384;23;20031;-64
2022/04/21 13:25:53;;;;;;;25.48;15.07;;;;;;;;;;6215567;23;20312;-64
2022/04/21 13:28:19;;;;;;;23.20;14.93;;;;;;;;;;6188886;23;20379;-82
2022/04/21 13:33:21;;;;;;;39.65;19.10;;;;;;;;;;6215801;23;20020;-81
2022/04/21 13:33:31;;;;;;;11.63;9.20;;;;;;;;;;6214900;23;20005;-82
2022/04/21 13:35:57;;;;;;;21.50;12.02;;;;;;;;;;6215650;23;19997;-81
2022/04/21 13:38:24;;;;;;;14.20;10.98;;;;;;;;;;6215664;23;20011;-82
2022/04/21 13:40:50;;;;;;;21.83;15.35;;;;;;;;;;6215644;23;20079;-81
2022/04/21 13:43:16;;;;;;;10.15;8.38;;;;;;;;;;6217871;23;20460;-82
2022/04/21 13:45:42;;;;;;;14.45;8.77;;;;;;;;;;6217720;23;20058;-82
2022/04/21 13:48:09;;;;;;;8.00;6.55;;;;;;;;;;6217995;23;19996;-82
2022/04/21 13:50:35;;;;;;;15.50;9.38;;;;;;;;;;6217533;23;20070;-78
2022/04/21 13:53:02;;;;;;;18.98;12.52;;;;;;;;;;6217626;23;20058;-79
2022/04/21 13:55:32;;;;;;;45.28;34.28;;;;;;;;;;6243007;23;20008;-79
2022/04/21 13:57:59;;;;;;;30.23;24.25;;;;;;;;;;6247850;23;20000;-79
2022/04/21 14:00:26;;;;;;;19.05;14.90;;;;;;;;;;6247890;23;20001;-78
2022/04/21 14:02:53;;;;;;;12.13;7.70;;;;;;;;;;6247630;23;19998;-80
2022/04/21 14:05:19;;;;;;;12.10;8.45;;;;;;;;;;6247658;23;20031;-81
2022/04/21 14:07:47;;;;;;;9.57;7.60;;;;;;;;;;6247879;23;20050;-78
2022/04/21 14:10:14;;;;;;;5.70;5.10;;;;;;;;;;6220966;23;20398;-79
2022/04/21 14:12:41;;;;;;;8.60;6.10;;;;;;;;;;6247841;23;20007;-80
2022/04/21 14:15:07;;;;;;;6.78;6.07;;;;;;;;;;6247772;23;20004;-80
2022/04/21 14:17:34;;;;;;;11.55;8.82;;;;;;;;;;6247739;23;20085;-78
2022/04/21 14:20:00;;;;;;;12.80;9.98;;;;;;;;;;6247693;23;20004;-79
2022/04/21 14:22:29;;;;;;;18.58;16.45;;;;;;;;;;6247825;23;20434;-79
2022/04/21 14:24:55;;;;;;;19.85;15.52;;;;;;;;;;6247247;23;20011;-79
2022/04/21 14:27:22;;;;;;;21.25;17.27;;;;;;;;;;6247696;23;19996;-80
2022/04/21 14:29:48;;;;;;;15.50;11.15;;;;;;;;;;6247585;23;20026;-79
2022/04/21 14:32:15;;;;;;;13.52;10.77;;;;;;;;;;6247764;23;20078;-80
2022/04/21 14:34:41;;;;;;;13.18;10.02;;;;;;;;;;6247530;23;20019;-82
2022/04/21 14:37:07;;;;;;;14.40;9.32;;;;;;;;;;6247432;23;20000;-81
2022/04/21 14:45:03;;;;;;;;;;;;;;;;;;6247840;23;20019;-81
2022/04/21 14:47:30;;;;;;;38.05;27.75;;;;;;;;;;6247413;23;19899;-82
2022/04/21 14:49:56;;;;;;;25.33;16.30;;;;;;;;;;6247477;23;20499;-80
2022/04/21 14:52:23;;;;;;;25.38;14.25;;;;;;;;;;6247395;23;20031;-82
2022/04/21 14:54:49;;;;;;;16.73;9.77;;;;;;;;;;6247251;23;20046;-81
2022/04/21 14:57:15;;;;;;;16.70;9.98;;;;;;;;;;6247411;23;20004;-81
2022/04/21 14:59:41;;;;;;;14.27;10.05;;;;;;;;;;6247381;23;20000;-83
2022/04/21 15:02:08;;;;;;;18.98;10.30;;;;;;;;;;6220585;23;20367;-82
2022/04/21 15:04:35;;;;;;;11.63;10.15;;;;;;;;;;6247383;23;20053;-82
2022/04/21 15:07:01;;;;;;;24.25;16.88;;;;;;;;;;6247342;23;20008;-81
2022/04/21 15:09:27;;;;;;;27.05;20.67;;;;;;;;;;6247376;23;20028;-82
2022/04/21 15:11:54;;;;;;;28.75;20.23;;;;;;;;;;6247296;23;20089;-81
2022/04/21 15:14:22;;;;;;;36.33;27.17;;;;;;;;;;6247229;23;20011;-80
2022/04/21 15:16:51;;;;;;;50.63;38.58;;;;;;;;;;6246948;23;19996;-81
2022/04/21 15:19:21;;;;;;;19.23;17.02;;;;;;;;;;6247282;23;20000;-81
2022/04/21 15:21:49;;;;;;;17.17;13.30;;;;;;;;;;6247189;23;20471;-80
2022/04/21 15:24:15;;;;;;;18.33;11.63;;;;;;;;;;6247172;23;20439;-81
2022/04/21 15:26:41;;;;;;;17.88;12.85;;;;;;;;;;6220089;23;20007;-82
2022/04/21 15:29:10;;;;;;;18.48;13.93;;;;;;;;;;6220339;23;20000;-82
2022/04/21 15:31:36;;;;;;;21.25;15.82;;;;;;;;;;6246969;23;20055;-80
2022/04/21 15:34:02;;;;;;;30.65;24.40;;;;;;;;;;6246986;23;19996;-81
2022/04/21 15:36:29;;;;;;;23.35;15.88;;;;;;;;;;6220274;23;20026;-81
2022/04/21 15:38:55;;;;;;;20.33;14.45;;;;;;;;;;6247125;23;20034;-82
2022/04/21 15:41:21;;;;;;;16.20;12.68;;;;;;;;;;6247040;23;20008;-81
2022/04/21 15:43:49;;;;;;;20.52;13.35;;;;;;;;;;6247079;23;19996;-81